createdAt,value
2022-12-25T00:00:02.107Z,88
2022-12-25T00:30:05.208Z,87
2022-12-25T01:00:27.373Z,87
2022-12-25T01:30:10.361Z,86
2022-12-25T02:00:10.511Z,87
2022-12-25T02:30:27.747Z,88
2022-12-25T03:00:18.235Z,88
2022-12-25T03:30:09.157Z,89
2022-12-25T04:00:09.128Z,88
2022-12-25T04:30:19.495Z,88
2022-12-25T05:00:03.654Z,88
2022-12-25T05:30:24.191Z,88
2022-12-25T06:00:09.256Z,88
2022-12-25T06:30:19.445Z,89
2022-12-25T07:00:20.312Z,89
2022-12-25T07:30:04.402Z,89
2022-12-25T08:00:04.711Z,90
2022-12-25T09:00:25.984Z,89
2022-12-25T09:30:16.258Z,86
2022-12-25T10:00:20.940Z,83
2022-12-25T10:30:01.296Z,79
2022-12-25T11:00:15.368Z,79
2022-12-25T11:30:16.256Z,73
2022-12-25T12:00:27.491Z,61
2022-12-25T12:30:10.889Z,61
2022-12-25T13:00:08.366Z,63
2022-12-25T13:30:00.135Z,62
2022-12-25T14:00:20.743Z,68
2022-12-25T14:30:25.504Z,75
2022-12-25T15:00:25.639Z,76
2022-12-25T15:30:10.900Z,79
2022-12-25T16:00:00.338Z,79
2022-12-25T16:30:15.771Z,70
2022-12-25T17:00:06.679Z,70
2022-12-25T17:30:20.951Z,69
2022-12-25T18:00:18.056Z,69
2022-12-25T18:30:28.974Z,70
2022-12-25T19:00:12.237Z,69
2022-12-25T19:30:26.030Z,69
2022-12-25T20:00:26.743Z,69
2022-12-25T20:30:18.537Z,71
2022-12-25T21:00:02.197Z,71
2022-12-25T21:30:23.139Z,72
2022-12-25T22:00:14.812Z,76
2022-12-25T23:00:05.159Z,75
2022-12-25T23:30:18.306Z,74
